createdAt,value
2019-05-22T00:01:20.303Z,84.18
2019-05-22T00:05:46.763Z,84.30
2019-05-22T00:10:14.646Z,84.42
2019-05-22T00:14:40.692Z,84.17
2019-05-22T00:19:07.247Z,84.35
2019-05-22T00:23:32.865Z,84.30
2019-05-22T00:27:59.762Z,84.12
2019-05-22T00:32:26.031Z,84.17
2019-05-22T00:36:50.562Z,84.01
2019-05-22T00:41:18.323Z,83.92
2019-05-22T00:45:45.724Z,84.04
2019-05-22T00:50:16.484Z,83.72
2019-05-22T00:54:52.022Z,84.14
2019-05-22T00:59:24.819Z,84.34
2019-05-22T01:03:50.440Z,84.39
2019-05-22T01:08:16.376Z,83.98
2019-05-22T01:12:43.063Z,83.98
2019-05-22T01:17:10.291Z,83.81
2019-05-22T01:21:36.703Z,83.90
2019-05-22T01:26:01.284Z,84.03
2019-05-22T01:30:40.158Z,83.74
2019-05-22T01:35:04.612Z,83.20
2019-05-22T01:39:55.890Z,83.09
2019-05-22T01:44:23.146Z,83.09
2019-05-22T01:48:49.101Z,83.23
2019-05-22T01:53:15.485Z,83.58
2019-05-22T01:57:41.239Z,83.75
2019-05-22T02:02:09.403Z,84.65
2019-05-22T02:06:34.268Z,85.60
2019-05-22T02:11:01.682Z,85.37
2019-05-22T02:15:27.577Z,85.70
2019-05-22T02:19:58.755Z,85.76
2019-05-22T02:24:24.147Z,85.78
2019-05-22T02:28:50.812Z,85.40
2019-05-22T02:33:21.015Z,85.88
2019-05-22T02:37:46.633Z,85.71
2019-05-22T02:42:16.115Z,85.83
2019-05-22T02:46:41.042Z,85.82
2019-05-22T02:51:07.003Z,85.74
2019-05-22T02:55:31.022Z,86.36
2019-05-22T02:59:56.883Z,87.08
2019-05-22T03:04:23.474Z,87.27
2019-05-22T03:09:25.291Z,87.53
2019-05-22T03:14:03.883Z,87.53
2019-05-22T03:18:29.125Z,87.42
2019-05-22T03:23:38.543Z,86.96
2019-05-22T03:28:05.873Z,86.67
2019-05-22T03:32:30.517Z,86.69
2019-05-22T03:36:56.370Z,86.66
2019-05-22T03:41:20.754Z,86.39
2019-05-22T03:45:48.109Z,86.13
2019-05-22T03:50:15.418Z,85.74
2019-05-22T03:54:40.190Z,85.25
2019-05-22T03:59:05.612Z,84.59
2019-05-22T04:03:30.094Z,84.29
2019-05-22T04:07:55.355Z,83.98
2019-05-22T04:12:19.966Z,83.71
2019-05-22T04:16:45.247Z,83.93
2019-05-22T04:21:09.491Z,83.51
2019-05-22T04:25:35.063Z,83.23
2019-05-22T04:29:59.923Z,82.86
2019-05-22T04:34:24.388Z,82.55
2019-05-22T04:38:49.120Z,82.39
2019-05-22T04:43:14.051Z,82.09
2019-05-22T04:47:39.929Z,81.39
2019-05-22T04:52:05.280Z,80.31
2019-05-22T04:56:30.030Z,80.44
2019-05-22T05:00:56.372Z,79.23
2019-05-22T05:05:24.599Z,79.00
2019-05-22T05:09:49.961Z,79.18
2019-05-22T05:14:14.724Z,78.86
2019-05-22T05:18:39.459Z,78.94
2019-05-22T05:23:03.641Z,78.20
2019-05-22T05:27:27.832Z,77.99
2019-05-22T05:31:52.112Z,78.42
2019-05-22T05:36:16.610Z,78.51
2019-05-22T05:40:42.094Z,78.58
2019-05-22T05:45:08.251Z,78.58
2019-05-22T05:49:32.558Z,78.56
2019-05-22T05:54:07.285Z,78.16
2019-05-22T05:58:32.158Z,78.16
2019-05-22T06:03:01.184Z,77.29
2019-05-22T06:07:26.199Z,75.19
2019-05-22T06:11:55.899Z,75.19
2019-05-22T06:16:57.278Z,75.08
2019-05-22T06:21:23.015Z,74.58
2019-05-22T06:25:47.527Z,74.58
2019-05-22T06:30:17.815Z,74.76
2019-05-22T06:34:42.050Z,74.59
2019-05-22T06:39:13.900Z,74.64
2019-05-22T06:44:43.855Z,75.28
2019-05-22T06:49:22.429Z,75.49
2019-05-22T06:53:46.616Z,74.28
2019-05-22T06:58:12.492Z,74.08
2019-05-22T07:02:38.474Z,73.71
2019-05-22T07:07:03.399Z,72.95
2019-05-22T07:11:28.359Z,72.95
2019-05-22T07:15:53.631Z,72.36
2019-05-22T07:20:19.419Z,72.36
2019-05-22T07:24:44.592Z,71.94
2019-05-22T07:29:08.924Z,71.72
2019-05-22T07:33:34.954Z,71.83
2019-05-22T07:37:58.868Z,71.56
2019-05-22T07:42:22.788Z,71.86
2019-05-22T07:46:48.401Z,72.01
2019-05-22T07:51:14.791Z,71.83
2019-05-22T07:55:39.805Z,71.78
2019-05-22T08:00:04.425Z,71.96
2019-05-22T08:04:29.692Z,71.96
2019-05-22T08:08:54.559Z,71.31
2019-05-22T08:13:19.055Z,71.13
2019-05-22T08:17:44.488Z,71.31
2019-05-22T08:22:09.234Z,70.64
2019-05-22T08:26:51.601Z,70.99
2019-05-22T08:31:05.354Z,67.52
2019-05-22T08:35:29.731Z,67.52
2019-05-22T08:39:53.998Z,66.87
2019-05-22T08:44:18.197Z,65.04
2019-05-22T08:48:47.707Z,64.53
2019-05-22T08:53:15.632Z,63.08
2019-05-22T08:57:43.111Z,62.00
2019-05-22T09:02:08.727Z,59.74
2019-05-22T09:06:32.784Z,58.05
2019-05-22T09:10:56.606Z,58.05
2019-05-22T09:15:22.049Z,56.03
2019-05-22T09:19:47.803Z,54.70
2019-05-22T09:24:16.611Z,55.37
2019-05-22T09:28:41.231Z,55.79
2019-05-22T09:33:06.316Z,55.79
2019-05-22T09:37:30.977Z,53.45
2019-05-22T09:41:54.937Z,53.45
2019-05-22T09:46:19.216Z,52.77
2019-05-22T09:50:43.466Z,52.43
2019-05-22T09:55:08.273Z,49.87
2019-05-22T09:59:32.372Z,49.31
2019-05-22T10:03:57.480Z,48.78
2019-05-22T10:08:21.750Z,46.96
2019-05-22T10:12:45.567Z,48.05
2019-05-22T10:17:10.251Z,46.89
2019-05-22T10:21:34.869Z,45.77
2019-05-22T10:25:58.742Z,44.58
2019-05-22T10:30:25.297Z,45.46
2019-05-22T10:34:49.494Z,44.64
2019-05-22T10:39:14.196Z,44.64
2019-05-22T10:43:38.600Z,44.71
2019-05-22T10:48:03.233Z,45.03
2019-05-22T10:52:28.120Z,45.20
2019-05-22T10:56:53.108Z,44.71
2019-05-22T11:01:16.909Z,45.24
2019-05-22T11:05:41.559Z,43.06
2019-05-22T11:10:07.136Z,42.58
2019-05-22T11:14:31.312Z,43.67
2019-05-22T11:18:55.813Z,42.57
2019-05-22T11:23:20.213Z,42.35
2019-05-22T11:27:45.321Z,42.51
2019-05-22T11:32:09.979Z,41.71
2019-05-22T11:36:34.970Z,42.47
2019-05-22T11:40:59.361Z,42.47
2019-05-22T11:45:24.983Z,42.47
2019-05-22T11:49:49.274Z,42.56
2019-05-22T11:54:15.050Z,42.10
2019-05-22T11:58:39.351Z,41.77
2019-05-22T12:03:04.238Z,41.98
2019-05-22T12:07:28.451Z,42.01
2019-05-22T12:11:53.314Z,41.32
2019-05-22T12:16:19.378Z,41.14
2019-05-22T12:20:44.051Z,40.28
2019-05-22T12:25:10.485Z,41.67
2019-05-22T12:29:34.478Z,42.45
2019-05-22T12:33:58.553Z,42.77
2019-05-22T12:38:26.749Z,42.98
2019-05-22T12:42:51.825Z,41.89
2019-05-22T12:47:17.512Z,42.52
2019-05-22T12:51:42.232Z,41.52
2019-05-22T12:56:06.765Z,40.88
2019-05-22T13:00:33.706Z,40.39
2019-05-22T13:04:59.463Z,40.21
2019-05-22T13:09:24.042Z,40.80
2019-05-22T13:13:48.869Z,40.34
2019-05-22T13:18:16.231Z,39.64
2019-05-22T13:22:44.737Z,38.17
2019-05-22T13:27:13.672Z,38.40
2019-05-22T13:31:38.270Z,39.24
2019-05-22T13:36:02.706Z,40.08
2019-05-22T13:40:29.822Z,39.54
2019-05-22T13:44:54.504Z,39.24
2019-05-22T13:58:06.978Z,37.75
2019-05-22T14:02:30.901Z,36.92
2019-05-22T14:06:55.130Z,36.98
2019-05-22T14:11:19.410Z,35.45
2019-05-22T14:15:52.578Z,35.39
2019-05-22T14:20:11.327Z,36.53
2019-05-22T14:24:35.709Z,36.76
2019-05-22T14:29:00.753Z,36.59
2019-05-22T14:33:28.082Z,35.92
2019-05-22T14:37:51.645Z,35.69
2019-05-22T14:42:16.943Z,37.60
2019-05-22T14:46:41.296Z,37.21
2019-05-22T14:51:05.908Z,38.56
2019-05-22T14:55:32.325Z,39.23
2019-05-22T14:59:56.892Z,39.67
2019-05-22T15:04:21.140Z,39.11
2019-05-22T15:08:45.672Z,39.34
2019-05-22T15:13:09.785Z,38.77
2019-05-22T15:17:34.479Z,39.32
2019-05-22T15:21:58.800Z,37.92
2019-05-22T15:26:22.935Z,38.37
2019-05-22T15:30:46.994Z,39.58
2019-05-22T15:35:11.776Z,39.67
2019-05-22T15:39:37.378Z,39.53
2019-05-22T15:44:01.896Z,39.93
2019-05-22T15:48:29.880Z,39.30
2019-05-22T15:53:01.295Z,40.00
2019-05-22T15:57:26.120Z,40.94
2019-05-22T16:01:51.078Z,40.90
2019-05-22T16:06:16.223Z,41.33
2019-05-22T16:10:43.121Z,41.03
2019-05-22T16:15:08.039Z,41.55
2019-05-22T16:19:33.357Z,41.55
2019-05-22T16:23:59.931Z,42.43
2019-05-22T16:28:24.756Z,42.43
2019-05-22T16:32:48.809Z,41.98
2019-05-22T16:37:15.420Z,42.41
2019-05-22T16:41:40.119Z,41.64
2019-05-22T16:46:06.775Z,41.57
2019-05-22T16:50:31.448Z,41.18
2019-05-22T16:54:55.823Z,42.88
2019-05-22T16:59:20.463Z,42.88
2019-05-22T17:03:44.361Z,43.37
2019-05-22T17:08:09.425Z,43.85
2019-05-22T17:12:34.729Z,44.40
2019-05-22T17:16:58.725Z,44.40
2019-05-22T17:21:23.407Z,45.56
2019-05-22T17:25:47.676Z,47.17
2019-05-22T17:30:13.857Z,47.17
2019-05-22T17:34:39.451Z,47.46
2019-05-22T17:39:03.276Z,47.72
2019-05-22T17:43:28.755Z,48.47
2019-05-22T17:47:54.688Z,48.61
2019-05-22T17:52:21.977Z,48.61
2019-05-22T17:56:45.946Z,48.81
2019-05-22T18:01:11.213Z,49.76
2019-05-22T18:05:41.822Z,49.89
2019-05-22T18:10:11.595Z,50.72
2019-05-22T18:14:36.770Z,51.43
2019-05-22T18:23:42.350Z,52.03
2019-05-22T18:28:07.325Z,52.29
2019-05-22T18:32:34.640Z,52.46
2019-05-22T18:36:58.701Z,52.60
2019-05-22T18:41:22.911Z,51.09
2019-05-22T18:45:46.979Z,48.83
2019-05-22T18:50:11.514Z,48.42
2019-05-22T18:54:35.493Z,48.42
2019-05-22T18:58:59.541Z,47.67
2019-05-22T19:03:23.723Z,46.63
2019-05-22T19:07:47.717Z,46.77
2019-05-22T19:12:11.582Z,46.54
2019-05-22T19:16:36.083Z,46.19
2019-05-22T19:21:00.237Z,45.75
2019-05-22T19:25:24.216Z,45.25
2019-05-22T19:29:48.200Z,45.29
2019-05-22T19:34:13.626Z,45.29
2019-05-22T19:38:37.850Z,45.01
2019-05-22T19:43:02.154Z,45.05
2019-05-22T19:47:26.418Z,45.14
2019-05-22T19:51:51.132Z,45.85
2019-05-22T19:56:15.295Z,45.85
2019-05-22T20:00:39.351Z,46.01
2019-05-22T20:05:04.005Z,46.01
2019-05-22T20:09:28.873Z,46.12
2019-05-22T20:13:53.708Z,46.48
2019-05-22T20:18:17.592Z,46.63
2019-05-22T20:22:42.065Z,47.37
2019-05-22T20:27:09.626Z,47.37
2019-05-22T20:31:32.331Z,47.83
2019-05-22T20:35:56.743Z,48.49
2019-05-22T20:40:23.188Z,48.49
2019-05-22T20:44:46.994Z,48.71
2019-05-22T20:49:11.947Z,48.84
2019-05-22T20:53:53.068Z,48.87
2019-05-22T20:58:05.983Z,49.40
2019-05-22T21:02:31.185Z,49.40
2019-05-22T21:07:00.534Z,49.62
2019-05-22T21:11:27.311Z,49.62
2019-05-22T21:15:53.180Z,50.18
2019-05-22T21:20:20.315Z,51.83
2019-05-22T21:24:44.435Z,51.83
2019-05-22T21:29:09.017Z,52.61
2019-05-22T21:33:32.816Z,53.11
2019-05-22T21:37:56.703Z,53.80
2019-05-22T21:42:21.452Z,54.90
2019-05-22T21:46:45.450Z,55.47
2019-05-22T21:51:10.575Z,55.47
2019-05-22T21:55:35.125Z,56.17
2019-05-22T22:00:00.057Z,56.76
2019-05-22T22:04:30.895Z,57.24
2019-05-22T22:08:55.684Z,57.89
2019-05-22T22:13:19.814Z,58.25
2019-05-22T22:17:45.542Z,58.64
2019-05-22T22:22:13.373Z,59.06
2019-05-22T22:26:37.443Z,59.11
2019-05-22T22:31:05.851Z,59.46
2019-05-22T22:35:31.432Z,59.24
2019-05-22T22:39:57.283Z,59.08
2019-05-22T22:44:22.619Z,60.14
2019-05-22T22:48:48.575Z,60.93
2019-05-22T22:53:15.568Z,61.14
2019-05-22T22:57:40.797Z,61.28
2019-05-22T23:02:10.708Z,61.51
2019-05-22T23:06:36.589Z,61.64
2019-05-22T23:11:01.714Z,61.75
2019-05-22T23:15:26.650Z,61.88
2019-05-22T23:19:49.650Z,62.29
2019-05-22T23:24:14.057Z,62.68
2019-05-22T23:28:40.752Z,62.82
2019-05-22T23:33:06.540Z,63.49
2019-05-22T23:37:32.242Z,64.27
2019-05-22T23:41:59.405Z,64.38
2019-05-22T23:46:25.953Z,64.48
2019-05-22T23:50:50.059Z,64.50
2019-05-22T23:55:14.424Z,64.74
2019-05-22T23:59:40.636Z,65.15
